METAR Data
IDs: Format: Raw Decoded Include TAF

Data at: 2027 UTC 15 Oct 2018

KERV 152015Z AUTO 34010G19KT 10SM BKN013 OVC020 06/04 A3015 RMK AO2 LTG DSNT E AND W T00570035
KERV 151955Z AUTO 35015G22KT 10SM BKN015 OVC020 06/03 A3014 RMK AO2 LTG DSNT E T00570032
KERV 151935Z AUTO 36010G18KT 10SM OVC013 06/03 A3018 RMK AO2 LTG DSNT E T00570033
KERV 151915Z AUTO 35014G20KT 10SM OVC013 06/03 A3019 RMK AO2 T00590034
KERV 151855Z AUTO 35014G21KT 10SM OVC013 06/04 A3018 RMK AO2 LTG DSNT SE T00600036
KERV 151835Z AUTO 35017G21KT 10SM OVC013 06/04 A3020 RMK AO2 T00570036
KERV 151815Z AUTO 35013G24KT 10SM OVC013 06/04 A3020 RMK AO2 T00570036
KERV 151755Z AUTO 34017G21KT 7SM OVC013 06/04 A3020 RMK AO2 LTG DSNT NW 60024 T00570038 10057 20050
KERV 151735Z AUTO 34014KT 7SM OVC011 05/04 A3021 RMK AO2 T00540036
KERV 151715Z AUTO 35015G23KT 10SM OVC011 06/04 A3021 RMK AO2 T00570038
KERV 151655Z AUTO 35014G21KT 10SM OVC011 06/04 A3021 RMK AO2 T00570040
KERV 151635Z AUTO 34012G18KT 10SM OVC011 06/04 A3021 RMK AO2 T00570040

KT82 152015Z AUTO 01013G18KT 10SM -RA BKN012 OVC021 05/03 A3016 RMK AO2 T00470032
KT82 151955Z AUTO 01015KT 10SM -RA OVC012 05/03 A3017 RMK AO2 LTG DSNT E T00500030
KT82 151935Z AUTO 36012G19KT 340V040 10SM OVC012 05/03 A3020 RMK AO2 LTG DSNT E AND SE T00510030
KT82 151915Z AUTO 36015G20KT 10SM OVC010 05/04 A3020 RMK AO2 T00520035
KT82 151855Z AUTO 01012G18KT 10SM OVC010 05/04 A3021 RMK AO2 LTG DSNT SE T00530038
KT82 151835Z AUTO 36014G21KT 10SM OVC010 05/04 A3023 RMK AO2 T00500035
KT82 151815Z AUTO 36015KT 10SM -DZ OVC010 05/04 A3023 RMK AO2 T00500035
KT82 151755Z AUTO 36014G17KT 10SM OVC010 05/04 A3022 RMK AO2 60092 T00510036 10055 20045
KT82 151735Z AUTO 01013G20KT 5SM BR OVC008 05/04 A3023 RMK AO2 LTG DSNT W T00490035
KT82 151715Z AUTO 36014G23KT 7SM OVC008 05/04 A3023 RMK AO2 LTG DSNT E T00490035
KT82 151655Z AUTO 01015G19KT 7SM OVC008 05/04 A3023 RMK AO2 T00500036
KT82 151635Z AUTO 01013G19KT 10SM OVC008 05/04 A3023 RMK AO2 T00500036

KJCT 151958Z AUTO 36011G17KT 10SM OVC013 06/03 A3025 RMK AO2 T00560028
KJCT 151951Z AUTO 02012KT 10SM OVC015 06/03 A3025 RMK AO2 RAE35 SLP229 P0007 T00560028
KJCT 151900Z AUTO 36009G23KT 5SM RA BR SCT013 OVC022 04/03 A3027 RMK AO2 P0001 T00440028
KJCT 151851Z AUTO 01017G23KT 6SM -RA BR BKN013 BKN019 OVC024 04/03 A3025 RMK AO2 PRESFR SLP232 P0018 T00440028
KJCT 151843Z AUTO 01012G18KT 4SM RA BR BKN013 OVC019 04/03 A3027 RMK AO2 P0018 T00440028
KJCT 151835Z AUTO 34008G15KT 3SM +RA BR BKN015 OVC022 04/03 A3029 RMK AO2 P0015 T00440028
KJCT 151817Z AUTO 02010KT 4SM RA BR BKN013 OVC026 04/03 A3027 RMK AO2 P0009 T00440033
KJCT 151805Z AUTO 01010KT 4SM RA BR SCT012 BKN020 OVC026 04/03 A3029 RMK AO2 P0004 T00440028
KJCT 151758Z AUTO 01008G18KT 4SM RA BR BKN014 OVC024 04/03 A3029 RMK AO2 P0002 T00440028
KJCT 151751Z AUTO 04012KT 3SM RA BR BKN016 OVC022 04/03 A3028 RMK AO2 PRESFR SLP238 P0013 60013 T00440028 10056 20044 50005
KJCT 151737Z AUTO 02014G20KT 4SM RA BR BKN015 OVC020 05/03 A3030 RMK AO2 P0008 T00500028
KJCT 151651Z AUTO 01013G21KT 5SM -RA BR OVC013 05/03 A3028 RMK AO2 RAB17E31B46 SLP240 P0000 T00500028
KJCT 151638Z AUTO 36010G20KT 4SM BR OVC013 05/03 A3028 RMK AO2 LTG DSNT NW RAB17E31 P0000 T00500033
KJCT 151630Z AUTO 01015G20KT 4SM -RA BR SCT010 OVC015 05/03 A3028 RMK AO2 LTG DSNT NW RAB17 P0000 T00500028

K5C1 152015Z AUTO 01019G28KT 10SM OVC009 06/05 A3011 RMK AO1 P0001
K5C1 151955Z AUTO 01015G25KT 10SM OVC009 06/06 A3013 RMK AO1 P0004
K5C1 151935Z AUTO 01015G23KT 10SM BKN009 OVC018 06/05 A3014 RMK AO1 P0003
K5C1 151915Z AUTO 01016G22KT 5SM BKN009 BKN019 OVC047 06/05 A3013 RMK AO1 P0002
K5C1 151855Z AUTO 36013G23KT 1 1/4SM BKN011 OVC019 06/05 A3015 RMK AO1 VIS 1/2V5 P0008
K5C1 151835Z AUTO 36016G23KT 10SM OVC011 06/05 A3018 RMK AO1
K5C1 151815Z AUTO 36014G23KT 10SM OVC011 06/05 A3017 RMK AO1
K5C1 151755Z AUTO 01013G27KT 10SM OVC011 06/05 A3016 RMK AO1
K5C1 151735Z AUTO 01014G23KT 340V040 10SM OVC011 06/05 A3016 RMK AO1
K5C1 151715Z AUTO 36016G23KT 10SM OVC011 06/05 A3016 RMK AO1
K5C1 151655Z AUTO 36017G26KT 10SM OVC011 06/05 A3017 RMK AO1
K5C1 151635Z AUTO 36015G23KT 10SM BKN011 BKN015 OVC025 06/05 A3017 RMK AO1

KHDO 151951Z AUTO 03014G19KT 7SM -RA OVC020 11/07 A3011 RMK AO2 PK WND 02029/1853 RAB12 SLP189 P0000 T01060067
KHDO 151851Z AUTO 01018G29KT 10SM OVC021 11/06 A3012 RMK AO2 PK WND 02029/1845 RAB29E46 SLP189 P0000 T01060061
KHDO 151751Z AUTO 01019G25KT 10SM OVC018 11/ A3015 RMK AO2 SLP199 60002 T0111 10111 20094 50018 $

KMWL 151953Z AUTO 36016G20KT 10SM SCT015 OVC044 06/03 A3029 RMK AO2 RAE39 SLP258 P0001 T00560033
KMWL 151919Z AUTO 34010KT 4SM -RA BR SCT015 BKN034 OVC043 05/03 A3031 RMK AO2 P0001 T00500033
KMWL 151906Z AUTO 35015KT 3SM -RA BR BKN016 OVC043 05/03 A3029 RMK AO2 PRESFR P0000 T00500033
KMWL 151853Z AUTO 34012KT 3SM -RA BR OVC014 05/03 A3031 RMK AO2 RAE1758B37 SLP265 P0000 T00500028
KMWL 151821Z AUTO 33014KT 10SM BKN011 OVC017 05/03 A3032 RMK AO2 RAE1758 P0000 T00500033
KMWL 151753Z AUTO 35015KT 10SM -RA BKN015 OVC019 05/03 A3032 RMK AO2 SLP268 P0004 60024 T00500028 10050 20039 50008
KMWL 151724Z AUTO 34012KT 6SM RA BR OVC013 04/03 A3032 RMK AO2 P0002 T00440028
KMWL 151717Z AUTO 36012G25KT 9SM RA OVC015 04/02 A3032 RMK AO2 P0000 T00440022
KMWL 151653Z AUTO 34013G22KT 10SM -RA BKN013 OVC017 04/03 A3032 RMK AO2 SLP269 P0002 T00440028
KMWL 151643Z AUTO 34013KT 7SM -RA BKN011 OVC016 04/02 A3032 RMK AO2 P0002 T00390022
KMWL 151632Z AUTO 35013G21KT 4SM -RA BR BKN009 BKN013 OVC020 04/03 A3032 RMK AO2 P0002 T00390028

KADM 151955Z 01009G15KT 10SM CLR 09/04 A3031
KADM 151855Z 36014KT 10SM CLR 07/03 A3034
KADM 151755Z 36017G22KT 10SM BKN021 06/02 A3036
KADM 151655Z 01012G21KT 10SM BKN021 BKN120 06/03 A3036

KJLN 151953Z 36006G15KT 10SM FEW031 09/01 A3038 RMK AO2 SLP290 T00890006
KJLN 151853Z 36006KT 10SM BKN027 07/01 A3039 RMK AO2 SLP295 T00720011
KJLN 151753Z 35012KT 10SM BKN025 06/00 A3040 RMK AO2 SLP300 T00560000 10056 20022 50009
KJLN 151653Z 36008KT 10SM BKN023 05/01 A3040 RMK AO2 SLP299 T00500006

KSZL 151956Z 34008KT 10SM SCT035 08/M01 A3033 RMK AO2A SLP279 T00801013 $
KSZL 151856Z 02007KT 10SM SCT036 07/M02 A3034 RMK AO2A SLP283 T00711016 $
KSZL 151756Z AUTO 36008KT 10SM SCT034 06/M02 A3035 RMK AO2 SLP286 T00601019 10064 20007 50002 $
KSZL 151656Z 02007KT 10SM BKN031 05/M01 A3035 RMK AO2A SLP286 T00541015 $

KCOU 151954Z 30008KT 10SM CLR 09/M01 A3034 RMK AO2 SLP280 T00891011
KCOU 151854Z 31007KT 10SM SCT035 08/M01 A3035 RMK AO2 SLP281 T00831006
KCOU 151754Z COR 03010KT 10SM FEW031 07/M01 A3035 RMK AO2 SLP281 T00721011 10072 20011 50000
KCOU 151729Z 01008KT 10SM SCT029 07/M01 A3036 RMK AO2 T00721011
KCOU 151654Z 33010G17KT 10SM BKN023 OVC028 06/M01 A3037 RMK AO2 SLP286 T00611006

KCWI 151956Z AUTO 28014G20KT 10SM CLR 09/M02 A3024 RMK AO2 SLP267 T00891022
KCWI 151856Z AUTO 29014G20KT 10SM CLR 08/M03 A3025 RMK AO2 SLP271 T00781028
KCWI 151756Z AUTO 30011G18KT 10SM FEW044 07/M03 A3027 RMK AO2 SLP278 T00721033 10072 20006 50000
KCWI 151656Z AUTO 30012G19KT 10SM CLR 07/M03 A3027 RMK AO2 SLP281 T00671033

KJLN 151953Z 36006G15KT 10SM FEW031 09/01 A3038 RMK AO2 SLP290 T00890006
KJLN 151853Z 36006KT 10SM BKN027 07/01 A3039 RMK AO2 SLP295 T00720011
KJLN 151753Z 35012KT 10SM BKN025 06/00 A3040 RMK AO2 SLP300 T00560000 10056 20022 50009
KJLN 151653Z 36008KT 10SM BKN023 05/01 A3040 RMK AO2 SLP299 T00500006

KOSH 151953Z 29017G24KT 10SM OVC042 04/M04 A3013 RMK AO2 PK WND 29029/1917 SLP215 T00391044
KOSH 151853Z 30014G23KT 10SM OVC039 03/M04 A3014 RMK AO2 PK WND 30027/1816 SLP215 T00331044
KOSH 151753Z 29013G22KT 10SM BKN038 03/M04 A3012 RMK AO2 SLP212 T00331039 10044 20006 51009
KOSH 151653Z 29016G24KT 10SM OVC035 03/M03 A3013 RMK AO2 PK WND 29028/1619 SLP212 T00331033